Time;durP1;ratioP1;P1;durP2;ratioP2;P2;SDS_P1;SDS_P2;PMS_P1;PMS_P2;Temp;Humidity;BMP_temperature;BMP_pressure;BME280_temperature;BME280_humidity;BME280_pressure;Samples;Min_cycle;Max_cycle;Signal;HPM_P1;HPM_P2
2022/01/05 00:00:15;;;;;;;0.10;0.10;;;;;;;;;;5023235;28;20221;-73
2022/01/05 00:02:41;;;;;;;0.13;0.13;;;;;;;;;;5023294;28;20247;-73
2022/01/05 00:05:10;;;;;;;0.10;0.10;;;;;;;;;;5023159;28;20204;-74
2022/01/05 00:07:36;;;;;;;0.10;0.10;;;;;;;;;;5023829;28;20259;-74
2022/01/05 00:10:03;;;;;;;0.10;0.10;;;;;;;;;;5023541;28;20558;-74
2022/01/05 00:12:29;;;;;;;0.10;0.10;;;;;;;;;;5023265;28;20275;-73
2022/01/05 00:14:55;;;;;;;0.10;0.10;;;;;;;;;;5023227;28;20223;-73
2022/01/05 00:17:22;;;;;;;0.10;0.10;;;;;;;;;;5023454;28;20208;-73
2022/01/05 00:19:48;;;;;;;0.10;0.10;;;;;;;;;;5023475;28;20247;-73
2022/01/05 00:22:16;;;;;;;0.10;0.10;;;;;;;;;;5023215;28;20250;-73
2022/01/05 00:24:43;;;;;;;0.10;0.10;;;;;;;;;;5005736;28;20259;-73
2022/01/05 00:27:09;;;;;;;0.10;0.10;;;;;;;;;;5003182;28;20209;-73
2022/01/05 00:29:36;;;;;;;0.10;0.10;;;;;;;;;;5003248;28;20247;-74
2022/01/05 00:32:02;;;;;;;0.20;0.20;;;;;;;;;;5003466;28;20205;-73
2022/01/05 00:34:28;;;;;;;0.10;0.10;;;;;;;;;;5003601;28;20255;-72
2022/01/05 00:36:54;;;;;;;0.20;0.20;;;;;;;;;;5003381;28;20208;-73
2022/01/05 00:39:22;;;;;;;0.20;0.20;;;;;;;;;;5012527;28;20220;-74
2022/01/05 00:41:48;;;;;;;0.10;0.10;;;;;;;;;;5042348;28;20436;-74
2022/01/05 00:44:15;;;;;;;0.10;0.10;;;;;;;;;;5042768;28;20207;-74
2022/01/05 00:46:41;;;;;;;0.10;0.10;;;;;;;;;;5042577;28;20217;-73
2022/01/05 00:49:07;;;;;;;0.10;0.10;;;;;;;;;;5042821;28;20370;-74
2022/01/05 00:51:33;;;;;;;0.20;0.20;;;;;;;;;;5042334;28;20282;-73
2022/01/05 00:53:59;;;;;;;0.10;0.10;;;;;;;;;;5042830;28;20207;-73
2022/01/05 00:56:27;;;;;;;0.20;0.20;;;;;;;;;;5042832;28;20512;-73
2022/01/05 00:58:53;;;;;;;0.10;0.10;;;;;;;;;;5042741;28;20208;-73
2022/01/05 01:01:19;;;;;;;0.20;0.20;;;;;;;;;;5042860;28;20223;-73
2022/01/05 01:03:46;;;;;;;0.10;0.10;;;;;;;;;;5042270;28;20208;-74
2022/01/05 01:06:12;;;;;;;0.10;0.10;;;;;;;;;;5042474;28;20512;-74
2022/01/05 01:08:38;;;;;;;0.10;0.10;;;;;;;;;;5042585;28;20433;-73
2022/01/05 01:11:04;;;;;;;0.10;0.10;;;;;;;;;;5042317;28;20216;-73
2022/01/05 01:13:32;;;;;;;0.10;0.10;;;;;;;;;;5037730;28;20304;-73
2022/01/05 01:15:58;;;;;;;0.10;0.10;;;;;;;;;;5022795;28;20208;-74
2022/01/05 01:18:25;;;;;;;0.20;0.20;;;;;;;;;;5022882;28;20215;-74
2022/01/05 01:20:51;;;;;;;0.20;0.20;;;;;;;;;;5022743;28;20283;-74
2022/01/05 01:23:20;;;;;;;0.20;0.20;;;;;;;;;;5023338;28;20216;-75
2022/01/05 01:25:46;;;;;;;0.10;0.10;;;;;;;;;;5022925;28;20215;-74
2022/01/05 01:28:13;;;;;;;0.13;0.13;;;;;;;;;;5022747;28;20200;-73
2022/01/05 01:30:40;;;;;;;0.20;0.20;;;;;;;;;;5022410;28;20248;-75
2022/01/05 01:33:07;;;;;;;0.10;0.10;;;;;;;;;;5022541;28;20231;-71
2022/01/05 01:35:33;;;;;;;0.17;0.17;;;;;;;;;;5008587;28;20209;-73
2022/01/05 01:37:59;;;;;;;0.20;0.20;;;;;;;;;;5002800;28;20217;-71
2022/01/05 01:40:26;;;;;;;0.10;0.10;;;;;;;;;;5016356;28;20267;-72
2022/01/05 01:42:52;;;;;;;0.10;0.10;;;;;;;;;;5022927;28;20254;-72
2022/01/05 01:45:18;;;;;;;0.10;0.10;;;;;;;;;;5022653;28;20209;-73
2022/01/05 01:47:46;;;;;;;0.17;0.17;;;;;;;;;;5022704;28;20441;-73
2022/01/05 01:50:13;;;;;;;0.20;0.20;;;;;;;;;;5022702;28;20546;-72
2022/01/05 01:52:39;;;;;;;0.10;0.10;;;;;;;;;;5022607;28;20237;-72
2022/01/05 01:55:06;;;;;;;0.10;0.10;;;;;;;;;;5026118;28;20208;-72
2022/01/05 01:57:34;;;;;;;0.10;0.10;;;;;;;;;;5025460;28;20208;-72
2022/01/05 02:00:03;;;;;;;0.10;0.10;;;;;;;;;;5025732;28;20235;-72
2022/01/05 02:02:29;;;;;;;0.20;0.20;;;;;;;;;;5025384;28;20234;-72
2022/01/05 02:04:56;;;;;;;0.10;0.10;;;;;;;;;;5025955;28;20211;-72
2022/01/05 02:07:22;;;;;;;0.10;0.10;;;;;;;;;;5025601;28;20207;-72
2022/01/05 02:09:49;;;;;;;0.17;0.17;;;;;;;;;;5025710;28;20204;-72
2022/01/05 02:12:15;;;;;;;0.10;0.10;;;;;;;;;;5025758;28;20212;-72
2022/01/05 02:14:41;;;;;;;0.20;0.20;;;;;;;;;;5025644;28;20208;-72
2022/01/05 02:17:16;;;;;;;0.20;0.20;;;;;;;;;;5025680;28;20230;-71
2022/01/05 02:19:42;;;;;;;0.20;0.20;;;;;;;;;;5025605;28;20192;-72
2022/01/05 02:22:09;;;;;;;0.10;0.10;;;;;;;;;;5026095;28;20212;-73
2022/01/05 02:24:36;;;;;;;0.20;0.20;;;;;;;;;;5025537;28;20217;-72
2022/01/05 02:27:02;;;;;;;0.20;0.20;;;;;;;;;;5025504;28;20209;-72
2022/01/05 02:29:28;;;;;;;0.20;0.20;;;;;;;;;;5025126;28;20251;-72
2022/01/05 02:31:57;;;;;;;0.10;0.10;;;;;;;;;;5025212;28;20523;-72
2022/01/05 02:34:23;;;;;;;0.20;0.20;;;;;;;;;;5025356;28;20287;-72
2022/01/05 02:36:49;;;;;;;0.20;0.20;;;;;;;;;;5025256;28;20562;-72
2022/01/05 02:39:17;;;;;;;0.20;0.20;;;;;;;;;;5029203;28;20203;-72
2022/01/05 02:41:43;;;;;;;0.10;0.10;;;;;;;;;;5044667;28;20266;-72
2022/01/05 02:44:09;;;;;;;0.10;0.10;;;;;;;;;;5045625;28;20227;-72
2022/01/05 02:46:35;;;;;;;0.20;0.20;;;;;;;;;;5044589;28;20208;-72
2022/01/05 02:49:02;;;;;;;0.10;0.10;;;;;;;;;;5029293;28;20276;-72
2022/01/05 02:51:29;;;;;;;0.10;0.10;;;;;;;;;;5024636;28;20231;-72
2022/01/05 02:53:55;;;;;;;0.20;0.20;;;;;;;;;;5024846;28;20460;-72
2022/01/05 02:56:22;;;;;;;0.20;0.20;;;;;;;;;;5024875;28;20208;-72
2022/01/05 02:58:49;;;;;;;0.10;0.10;;;;;;;;;;5024916;28;20211;-73
2022/01/05 03:01:15;;;;;;;0.20;0.20;;;;;;;;;;5029734;28;20543;-73
2022/01/05 03:03:41;;;;;;;0.20;0.20;;;;;;;;;;5044385;28;20250;-71
2022/01/05 03:06:08;;;;;;;0.10;0.10;;;;;;;;;;5043946;28;20525;-72
2022/01/05 03:08:34;;;;;;;0.10;0.10;;;;;;;;;;5044439;28;20207;-72
2022/01/05 03:11:00;;;;;;;0.10;0.10;;;;;;;;;;5044239;28;20202;-72
2022/01/05 03:13:28;;;;;;;0.20;0.20;;;;;;;;;;5044265;28;20207;-73
2022/01/05 03:15:56;;;;;;;0.10;0.10;;;;;;;;;;5044417;28;20205;-72
2022/01/05 03:18:22;;;;;;;0.10;0.10;;;;;;;;;;5044566;28;20205;-72
2022/01/05 03:20:48;;;;;;;0.20;0.20;;;;;;;;;;5044243;28;20224;-73
2022/01/05 03:23:15;;;;;;;0.10;0.10;;;;;;;;;;5044057;28;20235;-72
2022/01/05 03:25:42;;;;;;;0.10;0.10;;;;;;;;;;5043976;28;20208;-73
2022/01/05 03:28:08;;;;;;;0.10;0.10;;;;;;;;;;5044186;28;20408;-72
2022/01/05 03:30:36;;;;;;;0.10;0.10;;;;;;;;;;5044212;28;20204;-72
2022/01/05 03:33:12;;;;;;;0.10;0.10;;;;;;;;;;5044079;28;20521;-71
2022/01/05 03:35:40;;;;;;;0.10;0.10;;;;;;;;;;5026347;28;20206;-72
2022/01/05 03:38:08;;;;;;;0.20;0.20;;;;;;;;;;5004673;28;20221;-73
2022/01/05 03:40:35;;;;;;;0.10;0.10;;;;;;;;;;5019456;28;20242;-72
2022/01/05 03:43:02;;;;;;;0.10;0.10;;;;;;;;;;5024041;28;20235;-72
2022/01/05 03:45:28;;;;;;;0.10;0.10;;;;;;;;;;5023756;28;20279;-73
2022/01/05 03:47:55;;;;;;;0.10;0.10;;;;;;;;;;5024059;28;20208;-72
2022/01/05 03:50:22;;;;;;;0.10;0.10;;;;;;;;;;5023671;28;20205;-73
2022/01/05 03:52:49;;;;;;;0.20;0.20;;;;;;;;;;5023632;28;20227;-72
2022/01/05 03:55:15;;;;;;;0.10;0.10;;;;;;;;;;5023603;28;20214;-72
2022/01/05 03:57:41;;;;;;;0.10;0.10;;;;;;;;;;5023792;28;20503;-72
2022/01/05 04:00:08;;;;;;;0.10;0.10;;;;;;;;;;5023760;28;20263;-72
2022/01/05 04:02:35;;;;;;;0.20;0.20;;;;;;;;;;5023745;28;20405;-72
2022/01/05 04:05:02;;;;;;;0.20;0.20;;;;;;;;;;5023790;28;20220;-72
2022/01/05 04:07:28;;;;;;;0.10;0.10;;;;;;;;;;5023709;28;20283;-72
2022/01/05 04:09:55;;;;;;;0.20;0.20;;;;;;;;;;5023292;28;20563;-72
2022/01/05 04:12:21;;;;;;;0.20;0.20;;;;;;;;;;5023615;28;20204;-72
2022/01/05 04:14:47;;;;;;;0.20;0.20;;;;;;;;;;5023638;28;20246;-72
2022/01/05 04:17:13;;;;;;;0.10;0.10;;;;;;;;;;5022284;28;20208;-72
2022/01/05 04:19:39;;;;;;;0.20;0.20;;;;;;;;;;5023553;28;20205;-72
2022/01/05 04:22:07;;;;;;;0.10;0.10;;;;;;;;;;5023464;28;20543;-72
2022/01/05 04:24:33;;;;;;;0.13;0.13;;;;;;;;;;5023493;28;20207;-72
2022/01/05 04:26:59;;;;;;;0.20;0.20;;;;;;;;;;5023176;28;20269;-72
2022/01/05 04:29:26;;;;;;;0.10;0.10;;;;;;;;;;5023189;28;20205;-73
2022/01/05 04:31:52;;;;;;;0.20;0.20;;;;;;;;;;5023330;28;20238;-72
2022/01/05 04:34:19;;;;;;;0.20;0.20;;;;;;;;;;5022940;28;20239;-72
2022/01/05 04:36:45;;;;;;;0.20;0.20;;;;;;;;;;5023120;28;20276;-72
2022/01/05 04:39:13;;;;;;;0.20;0.20;;;;;;;;;;5022440;28;20206;-72
2022/01/05 04:41:39;;;;;;;0.10;0.10;;;;;;;;;;5023008;28;20219;-72
2022/01/05 04:44:05;;;;;;;0.17;0.17;;;;;;;;;;5023116;28;20390;-72
2022/01/05 04:46:31;;;;;;;0.10;0.10;;;;;;;;;;5023014;28;20215;-72
2022/01/05 04:48:58;;;;;;;0.20;0.20;;;;;;;;;;5022969;28;20204;-72
2022/01/05 04:51:24;;;;;;;0.17;0.17;;;;;;;;;;5022482;28;20250;-73
2022/01/05 04:53:51;;;;;;;0.20;0.20;;;;;;;;;;5022860;28;20200;-71
2022/01/05 04:56:18;;;;;;;0.13;0.13;;;;;;;;;;5022313;28;20197;-72
2022/01/05 04:58:45;;;;;;;0.20;0.20;;;;;;;;;;5022883;28;20206;-73
2022/01/05 05:01:11;;;;;;;0.10;0.10;;;;;;;;;;5022477;28;20427;-72
2022/01/05 05:03:38;;;;;;;0.20;0.20;;;;;;;;;;5022212;28;20249;-73
2022/01/05 05:06:04;;;;;;;0.20;0.20;;;;;;;;;;5022381;28;20278;-73
2022/01/05 05:08:30;;;;;;;0.10;0.10;;;;;;;;;;5022486;28;20559;-72
2022/01/05 05:10:56;;;;;;;0.20;0.20;;;;;;;;;;5022538;28;20247;-72
2022/01/05 05:13:24;;;;;;;0.10;0.10;;;;;;;;;;5022928;28;20224;-72
2022/01/05 05:15:50;;;;;;;0.20;0.20;;;;;;;;;;5022687;28;20211;-72
2022/01/05 05:18:16;;;;;;;0.20;0.20;;;;;;;;;;5022956;28;20271;-72
2022/01/05 05:20:43;;;;;;;0.20;0.20;;;;;;;;;;5022295;28;20530;-73
2022/01/05 05:23:09;;;;;;;0.20;0.20;;;;;;;;;;5022361;28;20203;-74
2022/01/05 05:25:35;;;;;;;0.10;0.10;;;;;;;;;;5022272;28;20204;-74
2022/01/05 05:28:01;;;;;;;0.20;0.20;;;;;;;;;;5023645;28;20229;-74
2022/01/05 05:30:29;;;;;;;0.20;0.20;;;;;;;;;;5026399;28;20510;-74
2022/01/05 05:32:57;;;;;;;0.20;0.20;;;;;;;;;;5026559;28;20525;-74
2022/01/05 05:35:23;;;;;;;0.20;0.20;;;;;;;;;;5026067;28;20206;-75
2022/01/05 05:37:50;;;;;;;0.20;0.20;;;;;;;;;;5019123;28;20211;-74
2022/01/05 05:40:16;;;;;;;0.20;0.20;;;;;;;;;;5026042;28;20418;-75
2022/01/05 05:42:42;;;;;;;0.20;0.20;;;;;;;;;;5025506;28;20224;-73
2022/01/05 05:45:09;;;;;;;0.20;0.20;;;;;;;;;;5026298;28;20376;-75
2022/01/05 05:47:37;;;;;;;0.13;0.13;;;;;;;;;;5025741;28;20196;-74
2022/01/05 05:50:03;;;;;;;0.20;0.20;;;;;;;;;;5025921;28;20207;-74
2022/01/05 05:52:29;;;;;;;0.13;0.13;;;;;;;;;;5025549;28;20231;-74
2022/01/05 05:54:56;;;;;;;0.20;0.20;;;;;;;;;;5025626;28;20510;-73
2022/01/05 05:57:22;;;;;;;0.10;0.10;;;;;;;;;;5025649;28;20208;-73
2022/01/05 05:59:48;;;;;;;0.10;0.10;;;;;;;;;;5025766;28;20278;-73
2022/01/05 06:02:15;;;;;;;0.20;0.20;;;;;;;;;;5025637;28;20223;-74
2022/01/05 06:04:42;;;;;;;0.20;0.20;;;;;;;;;;5014844;28;20204;-73
2022/01/05 06:07:09;;;;;;;0.20;0.20;;;;;;;;;;5025603;28;20269;-73
2022/01/05 06:09:35;;;;;;;0.20;0.20;;;;;;;;;;5025727;28;20511;-74
2022/01/05 06:12:01;;;;;;;0.20;0.20;;;;;;;;;;5022770;28;20207;-74
2022/01/05 06:14:27;;;;;;;0.20;0.20;;;;;;;;;;5025026;28;20204;-74
2022/01/05 06:16:53;;;;;;;0.20;0.20;;;;;;;;;;5025629;28;20204;-74
2022/01/05 06:19:20;;;;;;;0.13;0.13;;;;;;;;;;5025222;28;20502;-74
2022/01/05 06:21:50;;;;;;;0.17;0.17;;;;;;;;;;5025221;28;20381;-75
2022/01/05 06:24:16;;;;;;;0.20;0.20;;;;;;;;;;5025297;28;20573;-74
2022/01/05 06:26:44;;;;;;;0.20;0.20;;;;;;;;;;5025248;28;20203;-74
2022/01/05 06:29:12;;;;;;;0.20;0.20;;;;;;;;;;5024878;28;20203;-74
2022/01/05 06:31:39;;;;;;;0.20;0.20;;;;;;;;;;5025223;28;20320;-74
2022/01/05 06:34:05;;;;;;;0.20;0.20;;;;;;;;;;5024691;28;20215;-74
2022/01/05 06:36:31;;;;;;;0.20;0.20;;;;;;;;;;5024712;28;20215;-75
2022/01/05 06:38:59;;;;;;;0.40;0.40;;;;;;;;;;5024561;28;20245;-73
2022/01/05 06:41:25;;;;;;;0.20;0.20;;;;;;;;;;5024289;28;20230;-73
2022/01/05 06:43:51;;;;;;;0.20;0.20;;;;;;;;;;5024906;28;20515;-73
2022/01/05 06:46:17;;;;;;;0.20;0.20;;;;;;;;;;5024748;28;20207;-73
2022/01/05 06:48:44;;;;;;;0.20;0.20;;;;;;;;;;5025014;28;20200;-73
2022/01/05 06:51:10;;;;;;;0.10;0.10;;;;;;;;;;5024698;28;20231;-73
2022/01/05 06:53:36;;;;;;;0.20;0.20;;;;;;;;;;5025198;28;20207;-74
2022/01/05 06:56:04;;;;;;;0.10;0.10;;;;;;;;;;5024987;28;20250;-75
2022/01/05 06:58:31;;;;;;;0.20;0.20;;;;;;;;;;5024519;28;20260;-74
2022/01/05 07:00:57;;;;;;;0.10;0.10;;;;;;;;;;5017435;28;20332;-74
2022/01/05 07:03:23;;;;;;;0.20;0.20;;;;;;;;;;5022011;28;20210;-74
2022/01/05 07:05:50;;;;;;;0.10;0.10;;;;;;;;;;5024736;28;20211;-74
2022/01/05 07:08:17;;;;;;;0.20;0.20;;;;;;;;;;5024730;28;20393;-74
2022/01/05 07:10:43;;;;;;;0.20;0.20;;;;;;;;;;5019196;28;20396;-74
2022/01/05 07:13:10;;;;;;;0.20;0.20;;;;;;;;;;5011223;28;20430;-74
2022/01/05 07:15:37;;;;;;;0.20;0.20;;;;;;;;;;5014586;28;20207;-73
2022/01/05 07:18:03;;;;;;;0.20;0.20;;;;;;;;;;5004978;28;20218;-74
2022/01/05 07:20:30;;;;;;;0.20;0.20;;;;;;;;;;5014348;28;20509;-74
2022/01/05 07:22:57;;;;;;;0.13;0.13;;;;;;;;;;5013106;28;20232;-73
2022/01/05 07:25:23;;;;;;;0.20;0.20;;;;;;;;;;5024313;28;20238;-74
2022/01/05 07:27:50;;;;;;;0.20;0.20;;;;;;;;;;5024354;28;20207;-72
2022/01/05 07:30:17;;;;;;;0.20;0.20;;;;;;;;;;5020866;28;20206;-73
2022/01/05 07:32:43;;;;;;;0.20;0.20;;;;;;;;;;5015336;28;20208;-73
2022/01/05 07:35:10;;;;;;;0.20;0.20;;;;;;;;;;5020919;28;20246;-74
2022/01/05 07:37:36;;;;;;;0.17;0.17;;;;;;;;;;5013950;28;20266;-73
2022/01/05 07:40:02;;;;;;;0.20;0.20;;;;;;;;;;5015894;28;20227;-73
2022/01/05 07:42:33;;;;;;;0.20;0.20;;;;;;;;;;5023916;28;20281;-73
2022/01/05 07:44:59;;;;;;;0.20;0.20;;;;;;;;;;5022391;28;20493;-74
2022/01/05 07:47:27;;;;;;;0.20;0.20;;;;;;;;;;5018209;28;20434;-74
2022/01/05 07:49:53;;;;;;;0.20;0.20;;;;;;;;;;5003940;28;20216;-73
2022/01/05 07:52:19;;;;;;;0.20;0.20;;;;;;;;;;5022350;28;20240;-74
2022/01/05 07:54:46;;;;;;;0.20;0.20;;;;;;;;;;5023627;28;20206;-73
2022/01/05 07:57:12;;;;;;;0.20;0.20;;;;;;;;;;5023976;28;20262;-74
2022/01/05 07:59:38;;;;;;;0.20;0.20;;;;;;;;;;5023947;28;20210;-72
2022/01/05 08:02:04;;;;;;;0.20;0.20;;;;;;;;;;5012301;28;20228;-73
2022/01/05 08:04:32;;;;;;;0.20;0.20;;;;;;;;;;5017782;28;20206;-73
2022/01/05 08:06:58;;;;;;;0.20;0.20;;;;;;;;;;5012280;28;20215;-74
2022/01/05 08:09:25;;;;;;;0.20;0.20;;;;;;;;;;5015050;28;20203;-73
2022/01/05 08:11:51;;;;;;;0.20;0.20;;;;;;;;;;5011815;28;20202;-73
2022/01/05 08:14:17;;;;;;;0.20;0.20;;;;;;;;;;5003887;28;20214;-74
2022/01/05 08:16:43;;;;;;;0.20;0.20;;;;;;;;;;5003970;28;20396;-74
2022/01/05 08:19:09;;;;;;;0.20;0.20;;;;;;;;;;5003722;28;20224;-73
2022/01/05 08:21:37;;;;;;;0.20;0.20;;;;;;;;;;5003570;28;20255;-73
2022/01/05 08:24:03;;;;;;;0.20;0.20;;;;;;;;;;5003859;28;20299;-73
2022/01/05 08:26:30;;;;;;;0.20;0.20;;;;;;;;;;5003702;28;20208;-73
2022/01/05 08:28:56;;;;;;;0.20;0.20;;;;;;;;;;5003507;28;20231;-72
2022/01/05 08:31:22;;;;;;;0.20;0.20;;;;;;;;;;5003764;28;20255;-72
2022/01/05 08:33:49;;;;;;;0.20;0.20;;;;;;;;;;5003799;28;20250;-72
2022/01/05 08:36:15;;;;;;;0.20;0.20;;;;;;;;;;5003304;28;20207;-72
2022/01/05 08:38:42;;;;;;;0.10;0.10;;;;;;;;;;5003265;28;20442;-72
2022/01/05 08:41:09;;;;;;;0.20;0.20;;;;;;;;;;5008386;28;20207;-74
2022/01/05 08:43:35;;;;;;;0.10;0.10;;;;;;;;;;5023293;28;20453;-73
2022/01/05 08:46:02;;;;;;;0.10;0.10;;;;;;;;;;5023283;28;20530;-73
2022/01/05 08:48:28;;;;;;;0.10;0.10;;;;;;;;;;5022982;28;20206;-74
2022/01/05 08:50:54;;;;;;;0.20;0.20;;;;;;;;;;5023071;28;20211;-73
2022/01/05 08:53:21;;;;;;;0.10;0.10;;;;;;;;;;5023389;28;20460;-73
2022/01/05 08:55:49;;;;;;;0.20;0.20;;;;;;;;;;5005465;28;20207;-73
2022/01/05 08:58:16;;;;;;;0.20;0.20;;;;;;;;;;5003222;28;20206;-72
2022/01/05 09:00:42;;;;;;;0.20;0.20;;;;;;;;;;5011110;28;20215;-73
2022/01/05 09:03:09;;;;;;;0.20;0.20;;;;;;;;;;5004293;28;20269;-73
2022/01/05 09:05:35;;;;;;;0.20;0.20;;;;;;;;;;5007063;28;20239;-72
2022/01/05 09:08:02;;;;;;;0.20;0.20;;;;;;;;;;5007279;28;20258;-72
2022/01/05 09:10:29;;;;;;;0.20;0.20;;;;;;;;;;5009811;28;20209;-71
2022/01/05 09:12:57;;;;;;;0.20;0.20;;;;;;;;;;5009388;28;20254;-71
2022/01/05 09:15:23;;;;;;;0.10;0.10;;;;;;;;;;5014152;28;20287;-72
2022/01/05 09:17:49;;;;;;;0.17;0.17;;;;;;;;;;5017559;28;20205;-72
2022/01/05 09:20:15;;;;;;;0.20;0.20;;;;;;;;;;5022149;28;20242;-73
2022/01/05 09:22:42;;;;;;;0.20;0.20;;;;;;;;;;5027115;28;20279;-73
2022/01/05 09:25:09;;;;;;;0.20;0.20;;;;;;;;;;5026262;28;20207;-74
2022/01/05 09:27:36;;;;;;;0.10;0.10;;;;;;;;;;5018253;28;20471;-73
2022/01/05 09:30:04;;;;;;;0.20;0.20;;;;;;;;;;5016939;28;20535;-73
2022/01/05 09:32:31;;;;;;;0.10;0.10;;;;;;;;;;5012124;28;20206;-72
2022/01/05 09:34:57;;;;;;;0.10;0.10;;;;;;;;;;5019954;28;20247;-73
2022/01/05 09:37:27;;;;;;;0.10;0.10;;;;;;;;;;5016106;28;20251;-73
2022/01/05 09:42:38;;;;;;;0.20;0.20;;;;;;;;;;5006803;28;20524;-73
2022/01/05 09:45:17;;;;;;;0.20;0.20;;;;;;;;;;5006674;28;20209;-72
2022/01/05 09:47:48;;;;;;;0.10;0.10;;;;;;;;;;5007323;28;20240;-78
2022/01/05 09:50:14;;;;;;;0.10;0.10;;;;;;;;;;5007013;28;20240;-78
2022/01/05 09:52:41;;;;;;;0.20;0.20;;;;;;;;;;5008442;28;20293;-77
2022/01/05 09:55:08;;;;;;;0.10;0.10;;;;;;;;;;5007219;28;20206;-76
2022/01/05 09:57:35;;;;;;;0.17;0.17;;;;;;;;;;5007040;28;20509;-75
2022/01/05 10:00:01;;;;;;;0.10;0.10;;;;;;;;;;5006639;28;20214;-75
2022/01/05 10:02:30;;;;;;;0.10;0.10;;;;;;;;;;5006276;28;20278;-76
2022/01/05 10:04:56;;;;;;;0.20;0.20;;;;;;;;;;5006540;28;20211;-75
2022/01/05 10:07:22;;;;;;;0.10;0.10;;;;;;;;;;5006083;28;20511;-74
2022/01/05 10:09:49;;;;;;;0.10;0.10;;;;;;;;;;5022013;28;20403;-72
2022/01/05 10:12:16;;;;;;;0.10;0.10;;;;;;;;;;5025504;28;20208;-75
2022/01/05 10:14:43;;;;;;;0.20;0.20;;;;;;;;;;5025685;28;20205;-74
2022/01/05 10:17:10;;;;;;;0.20;0.20;;;;;;;;;;5025845;28;20211;-73
2022/01/05 10:19:38;;;;;;;0.10;0.10;;;;;;;;;;5025848;28;20205;-75
2022/01/05 10:22:05;;;;;;;0.10;0.10;;;;;;;;;;5025307;28;20209;-75
2022/01/05 10:24:42;;;;;;;0.17;0.17;;;;;;;;;;5016950;28;20217;-74
2022/01/05 10:27:09;;;;;;;0.20;0.20;;;;;;;;;;5008155;28;20205;-75
2022/01/05 10:29:35;;;;;;;0.10;0.10;;;;;;;;;;5005867;28;20206;-74
2022/01/05 10:32:02;;;;;;;0.20;0.20;;;;;;;;;;5005868;28;20210;-74
2022/01/05 10:34:29;;;;;;;0.10;0.10;;;;;;;;;;5008232;28;20228;-75
2022/01/05 10:36:58;;;;;;;0.13;0.13;;;;;;;;;;5025408;28;20396;-75
2022/01/05 10:39:28;;;;;;;0.10;0.10;;;;;;;;;;5025287;28;20217;-75
2022/01/05 10:41:54;;;;;;;0.10;0.10;;;;;;;;;;5009136;28;20205;-75
2022/01/05 10:44:21;;;;;;;0.10;0.10;;;;;;;;;;5005565;28;20300;-75
2022/01/05 10:46:49;;;;;;;0.10;0.10;;;;;;;;;;5022985;28;20578;-74
2022/01/05 10:49:26;;;;;;;0.20;0.20;;;;;;;;;;5024948;28;20215;-74
2022/01/05 10:51:52;;;;;;;0.10;0.10;;;;;;;;;;5021776;28;20282;-74
2022/01/05 10:54:22;;;;;;;0.10;0.10;;;;;;;;;;5013367;28;20515;-75
2022/01/05 10:56:48;;;;;;;0.10;0.10;;;;;;;;;;5037044;28;20212;-75
2022/01/05 10:59:15;;;;;;;0.10;0.10;;;;;;;;;;5033233;28;20215;-74
2022/01/05 11:01:42;;;;;;;0.10;0.10;;;;;;;;;;5032287;28;20216;-74
2022/01/05 11:04:18;;;;;;;0.10;0.10;;;;;;;;;;5018654;28;20237;-74
2022/01/05 11:06:54;;;;;;;0.10;0.10;;;;;;;;;;5007677;28;20481;-74
2022/01/05 11:09:21;;;;;;;0.10;0.10;;;;;;;;;;5005177;28;20271;-74
2022/01/05 11:11:49;;;;;;;0.20;0.20;;;;;;;;;;5023860;28;20477;-75
2022/01/05 11:14:17;;;;;;;0.20;0.20;;;;;;;;;;5024816;28;20204;-74
2022/01/05 11:16:44;;;;;;;0.20;0.20;;;;;;;;;;5024779;28;20508;-74
2022/01/05 11:19:14;;;;;;;0.10;0.10;;;;;;;;;;5024402;28;20256;-76
2022/01/05 11:21:41;;;;;;;0.10;0.10;;;;;;;;;;5024169;28;20205;-74
2022/01/05 11:24:07;;;;;;;0.10;0.10;;;;;;;;;;5024552;28;20270;-75
2022/01/05 11:26:36;;;;;;;0.10;0.10;;;;;;;;;;5023530;28;20205;-74
2022/01/05 11:29:03;;;;;;;0.20;0.20;;;;;;;;;;5024558;28;20213;-74
2022/01/05 11:31:29;;;;;;;0.20;0.20;;;;;;;;;;5024258;28;20220;-75
2022/01/05 11:33:56;;;;;;;0.10;0.10;;;;;;;;;;5024336;28;20436;-74
2022/01/05 11:36:23;;;;;;;0.10;0.10;;;;;;;;;;5024189;28;20220;-74
2022/01/05 11:38:49;;;;;;;0.10;0.10;;;;;;;;;;5019422;28;20238;-74
2022/01/05 11:41:16;;;;;;;0.10;0.10;;;;;;;;;;5024175;28;20209;-74
2022/01/05 11:43:44;;;;;;;0.20;0.20;;;;;;;;;;5023867;28;20248;-73
2022/01/05 11:46:14;;;;;;;0.10;0.10;;;;;;;;;;5023860;28;20209;-74
2022/01/05 11:48:40;;;;;;;0.10;0.10;;;;;;;;;;5024157;28;20208;-73
2022/01/05 11:51:07;;;;;;;0.10;0.10;;;;;;;;;;5023764;28;20233;-73
2022/01/05 11:53:41;;;;;;;0.20;0.20;;;;;;;;;;5023938;28;20205;-73
2022/01/05 11:56:09;;;;;;;0.10;0.10;;;;;;;;;;5023696;28;20242;-74
2022/01/05 11:58:36;;;;;;;0.10;0.10;;;;;;;;;;5017115;28;20209;-73
2022/01/05 12:01:21;;;;;;;0.10;0.10;;;;;;;;;;5015581;28;20253;-73
2022/01/05 12:04:01;;;;;;;0.10;0.10;;;;;;;;;;5004101;28;20288;-73
2022/01/05 12:06:29;;;;;;;0.10;0.10;;;;;;;;;;5018448;28;20488;-73
2022/01/05 12:08:56;;;;;;;0.20;0.20;;;;;;;;;;5023367;28;20208;-73
2022/01/05 12:11:29;;;;;;;0.20;0.20;;;;;;;;;;5023646;28;20533;-72
2022/01/05 12:13:55;;;;;;;0.20;0.20;;;;;;;;;;5023637;28;20204;-73
2022/01/05 12:16:22;;;;;;;0.10;0.10;;;;;;;;;;5023481;28;20431;-73
2022/01/05 12:19:02;;;;;;;0.10;0.10;;;;;;;;;;5023210;28;20209;-73
2022/01/05 12:21:41;;;;;;;0.10;0.10;;;;;;;;;;5023153;28;20212;-73
2022/01/05 12:24:08;;;;;;;0.17;0.17;;;;;;;;;;5023406;28;20298;-74
2022/01/05 12:26:34;;;;;;;0.20;0.20;;;;;;;;;;5023530;28;20205;-74
2022/01/05 12:29:00;;;;;;;0.20;0.20;;;;;;;;;;5023473;28;20212;-74
2022/01/05 12:31:45;;;;;;;0.13;0.13;;;;;;;;;;5023230;28;20200;-73
2022/01/05 12:34:12;;;;;;;0.10;0.10;;;;;;;;;;5020639;28;20203;-74
2022/01/05 12:36:40;;;;;;;0.10;0.10;;;;;;;;;;5023214;28;20514;-74
2022/01/05 12:39:06;;;;;;;0.17;0.17;;;;;;;;;;5022045;28;20204;-73
2022/01/05 12:41:34;;;;;;;0.17;0.17;;;;;;;;;;5015968;28;20386;-73
2022/01/05 12:44:02;;;;;;;0.20;0.20;;;;;;;;;;5005973;28;20292;-73
2022/01/05 12:46:38;;;;;;;0.20;0.20;;;;;;;;;;5017883;28;20398;-72
2022/01/05 12:49:09;;;;;;;0.20;0.20;;;;;;;;;;5019360;28;20198;-73
2022/01/05 12:51:44;;;;;;;0.13;0.13;;;;;;;;;;5022626;28;20460;-73
2022/01/05 12:54:12;;;;;;;0.20;0.20;;;;;;;;;;5022826;28;20208;-73
2022/01/05 12:56:40;;;;;;;0.20;0.20;;;;;;;;;;5009339;28;20341;-74
2022/01/05 12:59:09;;;;;;;0.20;0.20;;;;;;;;;;5005461;28;20218;-73
2022/01/05 13:01:35;;;;;;;0.10;0.10;;;;;;;;;;5020462;28;20201;-74
2022/01/05 13:04:05;;;;;;;0.20;0.20;;;;;;;;;;5008973;28;20227;-73
2022/01/05 13:06:32;;;;;;;0.20;0.20;;;;;;;;;;5011780;28;20210;-73
2022/01/05 13:09:04;;;;;;;0.10;0.10;;;;;;;;;;5019855;28;20282;-73
2022/01/05 13:11:33;;;;;;;0.20;0.20;;;;;;;;;;5023050;28;20204;-74
2022/01/05 13:14:18;;;;;;;0.10;0.10;;;;;;;;;;5022818;28;20220;-71
2022/01/05 13:16:44;;;;;;;0.20;0.20;;;;;;;;;;5022628;28;20242;-73
2022/01/05 13:19:21;;;;;;;0.20;0.20;;;;;;;;;;5022736;28;20257;-73
2022/01/05 13:21:48;;;;;;;0.13;0.13;;;;;;;;;;5018369;28;20209;-72
2022/01/05 13:24:16;;;;;;;0.20;0.20;;;;;;;;;;5013820;28;20235;-72
2022/01/05 13:27:01;;;;;;;0.10;0.10;;;;;;;;;;5008304;28;20213;-73
2022/01/05 13:29:28;;;;;;;0.20;0.20;;;;;;;;;;5017599;28;20208;-73
2022/01/05 13:31:55;;;;;;;0.10;0.10;;;;;;;;;;5003716;28;20218;-72
2022/01/05 13:34:28;;;;;;;0.20;0.20;;;;;;;;;;5021948;28;20219;-73
2022/01/05 13:36:55;;;;;;;0.10;0.10;;;;;;;;;;5022385;28;20215;-72
2022/01/05 13:39:35;;;;;;;0.40;0.40;;;;;;;;;;5010337;28;20444;-73
2022/01/05 13:42:01;;;;;;;0.13;0.13;;;;;;;;;;5003181;28;20216;-72
2022/01/05 13:44:27;;;;;;;1.53;0.37;;;;;;;;;;5004923;28;20252;-73
2022/01/05 13:46:54;;;;;;;0.17;0.17;;;;;;;;;;5022797;28;20468;-73
2022/01/05 13:49:20;;;;;;;0.17;0.17;;;;;;;;;;5023838;28;20398;-72
2022/01/05 13:52:01;;;;;;;0.20;0.20;;;;;;;;;;5025852;28;20235;-72
2022/01/05 13:54:27;;;;;;;0.40;0.40;;;;;;;;;;5026259;28;20192;-73
2022/01/05 13:56:55;;;;;;;0.20;0.20;;;;;;;;;;5025861;28;20255;-73
2022/01/05 13:59:21;;;;;;;0.20;0.20;;;;;;;;;;5026138;28;20215;-72
2022/01/05 14:01:55;;;;;;;0.47;0.47;;;;;;;;;;5026194;28;20215;-73
2022/01/05 14:04:21;;;;;;;0.20;0.20;;;;;;;;;;5026015;28;20218;-72
2022/01/05 14:06:57;;;;;;;0.20;0.20;;;;;;;;;;5026001;28;20511;-73
2022/01/05 14:09:28;;;;;;;0.10;0.10;;;;;;;;;;5025830;28;20242;-74
2022/01/05 14:11:57;;;;;;;0.20;0.20;;;;;;;;;;5025890;28;20212;-73
2022/01/05 14:14:23;;;;;;;0.20;0.20;;;;;;;;;;5025936;28;20242;-73
2022/01/05 14:16:50;;;;;;;0.23;0.23;;;;;;;;;;5025895;28;20508;-74
2022/01/05 14:19:17;;;;;;;0.20;0.20;;;;;;;;;;5025828;28;20209;-73
2022/01/05 14:21:45;;;;;;;0.17;0.17;;;;;;;;;;5025507;28;20262;-73
2022/01/05 14:24:11;;;;;;;0.20;0.20;;;;;;;;;;5025343;28;20226;-72
2022/01/05 14:26:39;;;;;;;0.20;0.20;;;;;;;;;;5025731;28;20208;-72
2022/01/05 14:29:08;;;;;;;0.20;0.20;;;;;;;;;;5025460;28;20208;-73
2022/01/05 14:31:35;;;;;;;0.20;0.20;;;;;;;;;;5025528;28;20434;-73
2022/01/05 14:34:02;;;;;;;0.13;0.13;;;;;;;;;;5025546;28;20246;-73
2022/01/05 14:36:35;;;;;;;0.10;0.10;;;;;;;;;;5025275;28;20207;-74
2022/01/05 14:39:02;;;;;;;0.17;0.17;;;;;;;;;;5025513;28;20264;-72
2022/01/05 14:41:36;;;;;;;0.20;0.20;;;;;;;;;;5025343;28;20277;-74
2022/01/05 14:44:03;;;;;;;0.10;0.10;;;;;;;;;;5024764;28;20237;-74
2022/01/05 14:46:31;;;;;;;0.20;0.20;;;;;;;;;;5025022;28;20557;-74